Data for 04/18/2009

Time Sea-Level Adjusted Pressure Absolute Pressure Temperature Relative Humidity Dew Point   
(mb) (inHg) (mb) (inHg) (C) (F) (%) (C) (F)
00:05 1023 30.21 852 25.16 1.8 35.3 87 -0.2 31.6
00:10 1023 30.21 852 25.16 1.7 35.1 87 -0.2 31.6
00:15 1023 30.21 852 25.16 1.6 35 87 -0.2 31.6
00:20 1023 30.21 852 25.16 1.9 35.4 86 -0.2 31.6
00:25 1023 30.21 852 25.16 2.3 36.1 85 -0.1 31.9
00:30 1023 30.21 852 25.16 2.3 36.1 85 -0 32
00:35 1023 30.21 852 25.16 2.2 35.9 85 -0 31.9
00:40 1023 30.21 852 25.16 1.9 35.5 86 -0.1 31.8
00:45 1023 30.21 852 25.16 1.4 34.5 88 -0.4 31.3
00:50 1023 30.21 852 25.16 1.2 34.1 89 -0.5 31.2
00:55 1023 30.21 852 25.16 1.1 34 90 -0.4 31.3
01:00 1023 30.21 852 25.16 1.2 34.2 90 -0.3 31.5
01:05 1023 30.21 852 25.16 1.5 34.7 88 -0.2 31.6
01:10 1023 30.21 852 25.16 1.9 35.4 86 -0.3 31.5
01:15 1023 30.21 852 25.16 2.2 36 85 0 32.1
01:20 1023 30.21 852 25.16 2.4 36.3 84 -0 32
01:25 1023 30.21 852 25.16 2.4 36.3 83 -0.2 31.7
01:30 1023 30.21 852 25.16 1.9 35.4 86 -0.2 31.6
01:35 1023 30.21 852 25.16 1.4 34.5 88 -0.4 31.3
01:40 1023 30.21 852 25.16 1.6 34.9 86 -0.5 31.1
01:45 1023 30.21 852 25.16 1.7 35.1 87 -0.3 31.5
01:50 1023 30.21 852 25.16 2.1 35.9 84 -0.2 31.6
01:55 1023 30.21 852 25.16 2.1 35.8 84 -0.2 31.6
02:00 1023 30.21 852 25.16 1.8 35.3 85 -0.4 31.4
02:05 1023 30.21 852 25.16 1.9 35.4 85 -0.4 31.2
02:10 1023 30.21 853 25.19 1.9 35.5 85 -0.3 31.5
02:15 1023 30.21 852 25.16 1.9 35.5 84 -0.5 31.1
02:20 1023 30.21 852 25.16 1.9 35.4 83 -0.6 30.8
02:25 1023 30.21 852 25.16 1.8 35.3 82 -0.9 30.5
02:30 1023 30.21 852 25.16 1.7 35 85 -0.6 30.9
02:35 1023 30.21 852 25.16 1.3 34.3 85 -0.9 30.3
02:40 1023 30.21 852 25.16 2.1 35.7 81 -0.8 30.5
02:45 1023 30.21 852 25.16 2.1 35.7 81 -0.8 30.5
02:50 1023 30.21 852 25.16 1.1 34 86 -0.9 30.3
02:55 1023 30.21 852 25.16 1 33.8 86 -1.1 30
03:00 1023 30.21 852 25.16 1.1 33.9 87 -0.9 30.4
03:05 1023 30.21 852 25.16 1.1 34 86 -0.9 30.3
03:10 1023 30.21 852 25.16 1.1 34.1 86 -1 30.2
03:15 1023 30.21 852 25.16 1.5 34.7 83 -1 30.1
03:20 1023 30.21 852 25.16 2.1 35.9 79 -1.1 30
03:25 1023 30.21 852 25.16 2.4 36.4 76 -1.3 29.7
03:30 1023 30.21 852 25.16 3.3 38 71 -1.5 29.3
03:35 1023 30.21 852 25.16 4.4 39.9 67 -1.3 29.7
03:40 1023 30.21 852 25.16 5 40.9 64 -1.3 29.7
03:45 1023 30.21 852 25.16 5 41 66 -0.8 30.6
03:50 1023 30.21 852 25.16 4.1 39.3 69 -1 30.2
03:55 1023 30.21 853 25.19 4.1 39.4 67 -1.4 29.5
04:00 1023 30.21 853 25.19 4.3 39.7 68 -1.1 29.9
04:05 1023 30.21 853 25.19 3.9 38.9 69 -1.3 29.7
04:10 1024 30.24 853 25.19 3.6 38.5 70 -1.4 29.4
04:15 1024 30.24 853 25.19 3.5 38.4 69 -1.5 29.2
04:20 1024 30.24 853 25.19 3.5 38.3 69 -1.6 29.1
04:25 1024 30.24 853 25.19 3.7 38.7 67 -1.8 28.8
04:30 1024 30.24 853 25.19 3.9 39 68 -1.6 29.2
04:35 1024 30.24 853 25.19 3.5 38.4 68 -1.8 28.8
04:40 1024 30.24 853 25.19 2.8 37.1 72 -1.7 28.9
04:45 1024 30.24 853 25.19 2.7 36.8 71 -2.1 28.2
04:50 1024 30.24 853 25.19 2.8 37 70 -2.1 28.3
04:55 1024 30.24 853 25.19 3 37.5 69 -2.1 28.3
05:00 1024 30.24 853 25.19 3.1 37.6 69 -2 28.4
05:05 1024 30.24 853 25.19 3.3 37.9 69 -1.9 28.6
05:10 1024 30.24 853 25.19 3.6 38.5 68 -1.7 28.9
05:15 1024 30.24 853 25.19 3.8 38.9 68 -1.6 29.1
05:20 1024 30.24 853 25.19 4 39.1 67 -1.7 29
05:25 1024 30.24 853 25.19 3.9 39.1 66 -1.8 28.8
05:30 1024 30.24 853 25.19 3.7 38.7 67 -1.8 28.8
05:35 1024 30.24 854 25.22 3.3 37.9 68 -2.1 28.3
05:40 1024 30.24 854 25.22 2.7 36.9 70 -2.2 28
05:45 1024 30.24 854 25.22 2.4 36.3 71 -2.3 27.9
05:50 1024 30.24 854 25.22 2.3 36.1 72 -2.2 28
05:55 1025 30.27 854 25.22 2.2 35.9 72 -2.3 27.9
06:00 1025 30.27 854 25.22 2.2 35.9 72 -2.4 27.6
06:05 1025 30.27 854 25.22 1.9 35.4 72 -2.6 27.3
06:10 1025 30.27 854 25.22 1.9 35.4 73 -2.4 27.7
06:15 1025 30.27 854 25.22 1.9 35.3 73 -2.5 27.5
06:20 1025 30.27 854 25.22 1.6 34.9 74 -2.5 27.5
06:25 1025 30.27 854 25.22 1.7 35.1 74 -2.4 27.7
06:30 1025 30.27 854 25.22 2 35.7 73 -2.4 27.7
06:35 1025 30.27 854 25.22 2.2 36 72 -2.3 27.9
06:40 1025 30.27 854 25.22 2.4 36.3 72 -2.2 28
06:45 1025 30.27 854 25.22 2.4 36.2 72 -2.2 28
06:50 1025 30.27 854 25.22 2.2 36 72 -2.3 27.9
06:55 1025 30.27 854 25.22 2.3 36.1 72 -2.3 27.9
07:00 1025 30.27 854 25.22 2.4 36.3 71 -2.3 27.8
07:05 1025 30.27 854 25.22 2.2 35.9 73 -2.2 28
07:10 1025 30.27 854 25.22 2.4 36.4 71 -2.2 28
07:15 1025 30.27 854 25.22 2.8 37.1 70 -2.2 28
07:20 1025 30.27 854 25.22 3.3 37.9 68 -2.1 28.2
07:25 1025 30.27 854 25.22 3.6 38.4 67 -2 28.5
07:30 1025 30.27 855 25.25 3.8 38.8 67 -1.7 28.9
07:35 1025 30.27 855 25.25 3.9 38.9 67 -1.8 28.8
07:40 1025 30.27 855 25.25 4.2 39.5 65 -1.8 28.7
07:45 1025 30.27 855 25.25 4.4 39.9 64 -1.7 28.9
07:50 1025 30.27 855 25.25 4.5 40.1 64 -1.7 28.9
07:55 1026 30.3 855 25.25 4.8 40.6 63 -1.7 29
08:00 1026 30.3 855 25.25 4.7 40.5 64 -1.5 29.3
08:05 1026 30.3 855 25.25 4.7 40.5 63 -1.7 28.9
08:10 1026 30.3 855 25.25 5.2 41.3 62 -1.6 29.1
08:15 1026 30.3 855 25.25 5.1 41.2 61 -1.8 28.7
08:20 1026 30.3 855 25.25 4.8 40.6 62 -1.8 28.8
08:25 1026 30.3 855 25.25 5 41 60 -2.1 28.3
08:30 1026 30.3 855 25.25 5.1 41.2 60 -2 28.4
08:35 1026 30.3 855 25.25 5.1 41.2 60 -1.9 28.5
08:40 1026 30.3 855 25.25 5.5 41.9 56 -2.5 27.5
08:45 1026 30.3 855 25.25 6.3 43.3 57 -1.7 29
08:50 1026 30.3 855 25.25 6.2 43.2 55 -2.1 28.2
08:55 1026 30.3 855 25.25 5.5 42 58 -2 28.4
09:00 1026 30.3 855 25.25 5.5 41.9 57 -2.4 27.7
09:05 1026 30.3 856 25.28 6 42.7 54 -2.7 27.1
09:10 1026 30.3 855 25.25 6.1 42.9 54 -2.6 27.3
09:15 1026 30.3 855 25.25 6.5 43.8 53 -2.4 27.6
09:20 1026 30.3 855 25.25 6.1 42.9 55 -2.4 27.7
09:25 1026 30.3 855 25.25 6.1 43 54 -2.4 27.7
09:30 1026 30.3 856 25.28 6.2 43.1 54 -2.4 27.7
09:35 1026 30.3 856 25.28 6.3 43.3 52 -2.9 26.8
09:40 1026 30.3 855 25.25 6.3 43.3 56 -1.9 28.6
09:45 1026 30.3 856 25.28 6.2 43.2 53 -2.7 27.1
09:50 1026 30.3 856 25.28 6.5 43.7 52 -2.7 27.1
09:55 1026 30.3 856 25.28 7 44.5 49 -2.9 26.8
10:00 1026 30.3 856 25.28 7.3 45.2 48 -3.1 26.4
10:05 1026 30.3 856 25.28 7.6 45.6 49 -2.5 27.6
10:10 1026 30.3 856 25.28 7.3 45.2 48 -2.9 26.7
10:15 1027 30.33 856 25.28 8.1 46.6 45 -3.2 26.3
10:20 1027 30.33 856 25.28 8.8 47.8 42 -3.4 25.9
10:25 1027 30.33 856 25.28 8.5 47.3 48 -1.9 28.5
10:30 1027 30.33 856 25.28 6.9 44.5 49 -3.1 26.4
10:35 1027 30.33 856 25.28 7.3 45.1 47 -3.4 26
10:40 1027 30.33 856 25.28 7.2 44.9 47 -3.5 25.7
10:45 1027 30.33 856 25.28 6.8 44.3 49 -3.2 26.3
10:50 1027 30.33 856 25.28 6.9 44.4 48 -3.4 25.9
10:55 1027 30.33 856 25.28 7.1 44.9 47 -3.5 25.6
11:00 1027 30.33 856 25.28 7.2 45 46 -3.7 25.3
11:05 1027 30.33 856 25.28 7.3 45.1 45 -4 24.9
11:10 1027 30.33 856 25.28 7.7 45.8 46 -3.3 26
11:15 1027 30.33 856 25.28 7.5 45.4 47 -3.2 26.2
11:20 1027 30.33 856 25.28 7.3 45.1 48 -3.1 26.4
11:25 1027 30.33 856 25.28 7.3 45.1 44 -4.1 24.6
11:30 1027 30.33 856 25.28 7.5 45.5 44 -4 24.8
11:35 1027 30.33 856 25.28 7.5 45.5 47 -3.2 26.3
11:40 1027 30.33 856 25.28 7.3 45.1 48 -3.1 26.4
11:45 1027 30.33 856 25.28 7.3 45.2 47 -3.3 26.1
11:50 1027 30.33 856 25.28 7.3 45.2 47 -3.4 26
11:55 1027 30.33 856 25.28 7.4 45.2 44 -4 24.8
12:00 1027 30.33 856 25.28 7.5 45.5 45 -3.7 25.3
12:05 1027 30.33 856 25.28 7.6 45.7 43 -4.3 24.2
12:10 1027 30.33 856 25.28 7.6 45.6 42 -4.4 24
12:15 1027 30.33 856 25.28 8 46.3 40 -4.9 23.2
12:20 1027 30.33 856 25.28 8.2 46.7 42 -3.9 25
12:25 1027 30.33 856 25.28 8.3 47 41 -4.1 24.7
12:30 1027 30.33 856 25.28 8.1 46.6 39 -5 23.1
12:35 1026 30.3 856 25.28 8.2 46.8 39 -4.8 23.4
12:40 1026 30.3 856 25.28 8.3 46.9 42 -3.8 25.2
12:45 1027 30.33 856 25.28 8.3 46.9 42 -3.8 25.2
12:50 1027 30.33 856 25.28 8.2 46.8 40 -4.5 23.9
12:55 1027 30.33 856 25.28 8.2 46.8 39 -5 23.1
13:00 1027 30.33 856 25.28 8.2 46.8 42 -4 24.8
13:05 1027 30.33 856 25.28 8.4 47.2 42 -3.8 25.2
13:10 1027 30.33 856 25.28 8.4 47 42 -3.8 25.2
13:15 1027 30.33 856 25.28 8.5 47.3 44 -2.9 26.8
13:20 1027 30.33 856 25.28 8.5 47.3 41 -3.9 25
13:25 1027 30.33 856 25.28 8.6 47.4 42 -3.5 25.6
13:30 1027 30.33 856 25.28 8.5 47.4 40 -4.1 24.6
13:35 1027 30.33 856 25.28 8.8 47.8 45 -2.4 27.6
13:40 1027 30.33 856 25.28 8.9 48 44 -2.6 27.3
13:45 1026 30.3 856 25.28 9.1 48.3 42 -3.1 26.5
13:50 1026 30.3 856 25.28 9.5 49 40 -3.5 25.8
13:55 1026 30.3 856 25.28 9.9 49.8 37 -4 24.9
14:00 1027 30.33 856 25.28 9.6 49.2 39 -3.7 25.3
14:05 1026 30.3 856 25.28 9 48.3 37 -4.8 23.4
14:10 1026 30.3 856 25.28 9.3 48.7 41 -3.4 25.9
14:15 1026 30.3 856 25.28 9.3 48.7 39 -4 24.8
14:20 1026 30.3 856 25.28 9.2 48.6 40 -3.8 25.2
14:25 1026 30.3 855 25.25 9.2 48.6 40 -3.5 25.6
14:30 1026 30.3 855 25.25 9.2 48.5 41 -3.4 25.8
14:35 1026 30.3 855 25.25 9.2 48.5 41 -3.3 26
14:40 1026 30.3 855 25.25 9.4 48.8 37 -4.5 23.9
14:45 1026 30.3 855 25.25 9.3 48.8 35 -5.3 22.5
14:50 1026 30.3 855 25.25 9.8 49.6 34 -5.4 22.3
14:55 1026 30.3 855 25.25 10 49.9 35 -4.6 23.7
15:00 1026 30.3 855 25.25 10.1 50.2 36 -4.4 24
15:05 1026 30.3 855 25.25 10 50.1 34 -4.9 23.1
15:10 1026 30.3 855 25.25 10.2 50.3 33 -5.3 22.4
15:15 1026 30.3 855 25.25 10.3 50.5 34 -4.9 23.2
15:20 1026 30.3 855 25.25 10.5 50.9 34 -4.7 23.6
15:25 1025 30.27 855 25.25 10.6 51 33 -4.9 23.1
15:30 1025 30.27 855 25.25 10.6 51 33 -5.1 22.8
15:35 1025 30.27 855 25.25 10.6 51.1 33 -4.9 23.1
15:40 1025 30.27 855 25.25 10.7 51.2 32 -5.5 22.1
15:45 1025 30.27 855 25.25 10.7 51.2 32 -5.3 22.5
15:50 1025 30.27 854 25.22 10.7 51.3 33 -4.9 23.2
15:55 1025 30.27 854 25.22 11.2 52.1 32 -5 22.9
16:00 1025 30.27 854 25.22 10.8 51.5 33 -4.8 23.4
16:05 1025 30.27 854 25.22 10.7 51.3 33 -4.9 23.1
16:10 1025 30.27 854 25.22 10.8 51.4 33 -4.9 23.2
16:15 1025 30.27 854 25.22 10.7 51.2 34 -4.6 23.7
16:20 1025 30.27 854 25.22 10.6 51.1 31 -5.7 21.7
16:25 1025 30.27 854 25.22 10.8 51.4 32 -5.4 22.4
16:30 1025 30.27 854 25.22 11 51.8 33 -4.6 23.6
16:35 1025 30.27 854 25.22 11.2 52.1 29 -6.1 21.1
16:40 1025 30.27 854 25.22 11.2 52.1 29 -6 21.2
16:45 1025 30.27 854 25.22 11.3 52.3 31 -5.4 22.3
16:50 1025 30.27 854 25.22 11.2 52.1 30 -5.9 21.4
16:55 1025 30.27 854 25.22 11.1 52 29 -6.4 20.5
17:00 1025 30.27 854 25.22 11.3 52.4 28 -6.7 19.9
17:05 1025 30.27 854 25.22 11.7 53 28 -6.3 20.7
17:10 1025 30.27 854 25.22 11.7 53.1 27 -6.8 19.8
17:15 1025 30.27 854 25.22 11.8 53.3 24 -7.9 17.8
17:20 1025 30.27 854 25.22 12.5 54.6 24 -7.5 18.5
17:25 1025 30.27 854 25.22 13.3 55.9 22 -8.2 17.2
17:30 1025 30.27 854 25.22 12.9 55.3 26 -6.3 20.7
17:35 1025 30.27 854 25.22 12.2 54 27 -6.4 20.5
17:40 1025 30.27 854 25.22 12.2 53.9 25 -7 19.3
17:45 1025 30.27 854 25.22 12.3 54.1 22 -8.9 16.1
17:50 1025 30.27 854 25.22 12.3 54.1 23 -8.3 17
17:55 1025 30.27 854 25.22 12.7 54.8 21 -8.9 15.9
18:00 1025 30.27 854 25.22 12.5 54.4 24 -7.7 18.2
18:05 1025 30.27 854 25.22 12.9 55.3 23 -7.5 18.6
18:10 1025 30.27 854 25.22 13 55.4 22 -8.5 16.7
18:15 1025 30.27 854 25.22 12.6 54.7 23 -8.1 17.4
18:20 1025 30.27 854 25.22 12.7 54.9 25 -7 19.3
18:25 1025 30.27 854 25.22 12.6 54.7 25 -7.1 19.3
18:30 1025 30.27 854 25.22 11.7 53 31 -4.7 23.5
18:35 1025 30.27 854 25.22 11.2 52.1 34 -4 24.7
18:40 1025 30.27 854 25.22 10.8 51.5 34 -4.4 24.1
18:45 1025 30.27 854 25.22 10.5 50.9 32 -5.3 22.4
18:50 1025 30.27 854 25.22 10.6 51.1 34 -4.7 23.6
18:55 1025 30.27 854 25.22 10.4 50.7 37 -3.8 25.2
19:00 1025 30.27 854 25.22 10.1 50.3 35 -4.4 24
19:05 1025 30.27 854 25.22 10.1 50.2 37 -3.9 25
19:10 1025 30.27 854 25.22 9.9 49.8 39 -3.3 26.1
19:15 1025 30.27 854 25.22 10.1 50.2 38 -3.5 25.8
19:20 1025 30.27 854 25.22 10.4 50.6 38 -3.2 26.3
19:25 1025 30.27 854 25.22 10.3 50.6 40 -2.8 26.9
19:30 1025 30.27 854 25.22 9.9 49.7 40 -3 26.7
19:35 1025 30.27 854 25.22 9.7 49.5 40 -3.1 26.5
19:40 1025 30.27 854 25.22 9.6 49.3 39 -3.6 25.5
19:45 1025 30.27 854 25.22 9.6 49.4 37 -4.4 24
19:50 1025 30.27 854 25.22 9.7 49.4 35 -4.9 23.1
19:55 1025 30.27 854 25.22 9.6 49.4 36 -4.7 23.6
20:00 1025 30.27 854 25.22 9.7 49.5 34 -5.4 22.3
20:05 1025 30.27 854 25.22 9.8 49.7 35 -4.8 23.3
20:10 1025 30.27 854 25.22 9.7 49.4 34 -5.5 22.1
20:15 1025 30.27 854 25.22 9.5 49.1 33 -6.1 21
20:20 1025 30.27 854 25.22 9.4 49 37 -4.7 23.6
20:25 1025 30.27 854 25.22 9 48.3 38 -4.6 23.6
20:30 1025 30.27 854 25.22 8.8 47.8 37 -5.1 22.9
20:35 1025 30.27 854 25.22 8.6 47.5 39 -4.6 23.7
20:40 1025 30.27 854 25.22 8.3 46.9 40 -4.6 23.8
20:45 1025 30.27 855 25.25 8.1 46.7 41 -4.2 24.4
20:50 1025 30.27 854 25.22 8.1 46.6 41 -4.4 24.1
20:55 1025 30.27 854 25.22 8.3 46.9 40 -4.6 23.8
21:00 1025 30.27 854 25.22 8.3 47 41 -4.2 24.5
21:05 1025 30.27 855 25.25 8 46.4 43 -3.8 25.1
21:10 1025 30.27 855 25.25 7.3 45.2 44 -4.2 24.4
21:15 1025 30.27 855 25.25 7.4 45.2 43 -4.3 24.2
21:20 1025 30.27 855 25.25 7.2 44.9 47 -3.4 25.9
21:25 1026 30.3 855 25.25 6.8 44.3 47 -3.7 25.3
21:30 1026 30.3 855 25.25 6.6 43.9 48 -3.7 25.4
21:35 1026 30.3 855 25.25 6 42.8 50 -3.6 25.5
21:40 1026 30.3 855 25.25 5.5 41.9 50 -4.1 24.6
21:45 1026 30.3 855 25.25 5.6 42.1 45 -5.3 22.4
21:50 1026 30.3 855 25.25 6.2 43.2 43 -5.6 22
21:55 1026 30.3 855 25.25 6.7 44 41 -5.5 22
22:00 1026 30.3 855 25.25 6.8 44.2 41 -5.6 21.9
22:05 1026 30.3 855 25.25 6.7 44.1 40 -5.8 21.6
22:10 1026 30.3 855 25.25 6.8 44.3 40 -5.7 21.7
22:15 1026 30.3 855 25.25 6.8 44.2 42 -5.3 22.5
22:20 1026 30.3 855 25.25 6.4 43.6 42 -5.5 22.1
22:25 1026 30.3 855 25.25 6.2 43.1 45 -4.8 23.3
22:30 1026 30.3 855 25.25 5.8 42.4 43 -5.8 21.5
22:35 1026 30.3 855 25.25 6.1 43 44 -5.3 22.4
22:40 1026 30.3 855 25.25 6.1 42.9 45 -5 22.9
22:45 1026 30.3 855 25.25 5.7 42.3 47 -4.7 23.6
22:50 1026 30.3 855 25.25 5.4 41.7 46 -5.3 22.5
22:55 1026 30.3 855 25.25 5.6 42 44 -5.7 21.8
23:00 1026 30.3 855 25.25 5.6 42 47 -4.9 23.2
23:05 1026 30.3 855 25.25 5 41 49 -4.8 23.3
23:10 1026 30.3 855 25.25 4.7 40.5 49 -5.2 22.7
23:15 1026 30.3 855 25.25 4.7 40.4 49 -5.3 22.5
23:20 1026 30.3 855 25.25 4.5 40 52 -4.6 23.8
23:25 1026 30.3 855 25.25 4.1 39.4 53 -4.7 23.5
23:30 1026 30.3 855 25.25 4 39.1 53 -4.7 23.5
23:35 1026 30.3 855 25.25 4.1 39.4 49 -5.6 22
23:40 1026 30.3 855 25.25 4.4 39.9 49 -5.5 22.2
23:45 1026 30.3 855 25.25 4.3 39.8 49 -5.6 22
23:50 1026 30.3 855 25.25 4.3 39.7 49 -5.4 22.2
23:55 1026 30.3 855 25.25 4.3 39.8 49 -5.5 22.1
24:00 1026 30.3 855 25.25 4.3 39.8 49 -5.3 22.4